Yemassee, SC

12:12 AM EST on December 19, 2014 (GMT -0500)
Hilton Head | Change Station
CLOSE
Current Station
Airport
Location: Hilton Head Island,
Elevation: 20 ft
Nearby Weather Stations

Elev 20 ft 32.22 °N, 80.70 °W | Updated 1 hour ago

Partly Cloudy
Partly Cloudy
46 °F
Feels Like 46 °F
N
0
Wind Variable Wind from North

Today
High -- | Low -- °F
--% Chance of Precip.
Yesterday
High -- | Low -- °F
Precip. -- in
7:19 AM 5:20 PM
Waning Crescent, 10% visible
Pressure 30.14 in
Visibility 7.0 miles
Clouds Clear
Dew Point 46 °F
Humidity 100%
Rainfall 0.00 in
Snow Depth Not available.
UV 0 out of 12
Pollen 2.40 out of 12
Air Quality Not available.
Flu Activity Not available.
METAR KHXD 190355Z AUTO 00000KT 7SM CLR 08/08 A3014 RMK AO2 P0000

More Conditions Fewer Conditions

Pressure 30.14 in
Visibility 7.0 miles
Clouds Clear
Dew Point 46 °F
Humidity 100%
Rainfall 0.00 in
Snow Depth Not available.
UV 0 out of 12
Pollen 2.40 out of 12
Air Quality Not available.
Flu Activity Not available.
METAR KHXD 190355Z AUTO 00000KT 7SM CLR 08/08 A3014 RMK AO2 P0000

More Conditions Fewer Conditions

10-Day Weather Forecast

Almanac

Astronomy

Dec. 19, 2014 Rise Set
Actual Time
Civil Twilight
Nautical Twilight
Astronomical Twilight
Moon
Length of Visible Light
Length of Day
Tomorrow will be .
, % of the Moon is Illuminated

Today's Extremes

State Highs State Lows

Community

WunderPhotos

Upload Photos

1,778,953 photos uploaded!

WunderBlogs® & News

Nearby

Air Quality

  Air Quality AQ Index Pollutant
Not available.

Snow Depth

Station Depth Elevation

Earthquake Activity

City Distance Mag. Time & Date
Minimum magnitude displayed is 2.5.

Coastal Water Temperatures

Place Temperature

Nearby Weather Stations